LEGRLEBA

Guest
Details From LEGR - Granada
To LEBA - Cordoba
Flight Number -
Tags generated
Created
Modified
Stats Distance 65 nm / 120 km
Max Altitude 1,100 ft / 335 m
Waypoints 3
Social Downloads 2
Likes 0
Share VATSIM

Download

Looking for another format? Having issues loading an existing format? Contact us
Advertisement - Login to hide

Notes

Basic altitude profile: - Ascent Rate: 2500ft/min - Ascent Speed: 250kts - Cruise Altitude: 35000ft - Cruise Speed: 420kts - Descent Rate: 1500ft/min - Descent Speed: 250kts Options: - Use NATs: no - Use PACOTS: no - Use low airways: no - Use high airways: yes

Route

LEGR VULPE LEBA

ID Type Via Altitude Latitude Longitude Leg Dist Tot Dist Heading (true) Name
O LEGR APT - 0 ft / 0 m 37.18873˚ -3.77736˚ - 0 nm - Granada
VULPE FIX - 1,100 ft / 335 m 37.76122˚ -4.79843˚ 59 nm 59 nm 306° / 305° -
O LEBA APT - 0 ft / 0 m 37.84315˚ -4.84806˚ 5 nm 65 nm 334° / 334° Cordoba

Altitude Profile

Advertisement - Login to hide

LEGR

Details ICAO LEGR (GRX)
Name Granada
Region Spain
Timezone Europe/Madrid (UTC+1.0)
Stats Elevation 1,859 ft / 567 m (AMSL)
Location 37.188731° -3.777359°
Runways 1
Magnetic Variation 0.678° W

METAR

LEGR 111430Z 26008KT 9999 FEW016 SCT025 BKN040 08/05 Q1003

Decode

TAF

TAF LEGR 111400Z 1115/1215 VRB03KT 9999 FEW015 BKN025 TX12/1215Z TN00/1207Z PROB30 TEMPO 1115/1117 27010KT PROB30 TEMPO 1200/1207 BKN014 PROB30 TEMPO 1211/1215 02010KT

Decode

Departure Runways

ID Width Length Bearing (true) Bearing (mag) Surface Threshold Offset Overrun Length
09 147 ft / 45 m 9,511 ft / 2,899 m 89.46° 90.14° Asphalt 0 ft / 0 m 0 ft / 0 m
27 147 ft / 45 m 9,511 ft / 2,899 m 269.48° 270.16° Asphalt 0 ft / 0 m 0 ft / 0 m

LEBA

Details ICAO LEBA (ODB)
Name Cordoba
Region Spain
Timezone Europe/Madrid (UTC+1.0)
Stats Elevation 296 ft / 90 m (AMSL)
Location 37.843152° -4.848064°
Runways 1
Magnetic Variation 0.993° W

METAR

LEBA 111430Z 23012KT 9999 SCT039 12/07 Q1002

Decode

TAF

Not found

Destination Runways

ID Width Length Bearing (true) Bearing (mag) Surface Threshold Offset Overrun Length
03 197 ft / 60 m 7,224 ft / 2,202 m 28.69° 29.68° Asphalt 0 ft / 0 m 0 ft / 0 m
21 197 ft / 60 m 7,224 ft / 2,202 m 208.70° 209.69° Asphalt 1,939 ft / 591 m 0 ft / 0 m